createdAt,value
2022-09-12T00:00:07.848Z,22.52
2022-09-12T00:02:34.248Z,20.58
2022-09-12T00:05:00.622Z,21.95
2022-09-12T00:07:27.000Z,26.75
2022-09-12T00:09:53.436Z,24.65
2022-09-12T00:12:19.785Z,26.23
2022-09-12T00:14:46.125Z,23.42
2022-09-12T00:17:12.541Z,22.70
2022-09-12T00:19:38.890Z,21.25
2022-09-12T00:22:05.241Z,21.75
2022-09-12T00:24:31.610Z,24.13
2022-09-12T00:26:57.947Z,23.38
2022-09-12T00:29:24.332Z,26.25
2022-09-12T00:31:50.893Z,23.60
2022-09-12T00:34:17.317Z,24.55
2022-09-12T00:36:43.715Z,23.48
2022-09-12T00:39:11.617Z,24.10
2022-09-12T00:41:39.729Z,23.65
2022-09-12T00:44:12.085Z,23.15
2022-09-12T00:46:54.824Z,23.15
2022-09-12T00:49:30.290Z,23.65
2022-09-12T00:51:59.819Z,20.42
2022-09-12T00:54:30.671Z,21.30
2022-09-12T00:57:02.024Z,22.88
2022-09-12T00:59:40.230Z,22.15
2022-09-12T01:02:07.234Z,24.33
2022-09-12T01:04:34.982Z,20.73
2022-09-12T01:07:03.628Z,21.00
2022-09-12T01:09:30.059Z,20.40
2022-09-12T01:11:57.048Z,24.35
2022-09-12T01:14:23.438Z,25.65
2022-09-12T01:16:50.665Z,25.55
2022-09-12T01:19:51.271Z,24.38
2022-09-12T01:25:12.567Z,23.25
2022-09-12T01:28:07.027Z,24.20
2022-09-12T01:33:36.249Z,24.02
2022-09-12T01:36:23.433Z,23.33
2022-09-12T01:39:00.247Z,25.42
2022-09-12T01:41:41.344Z,21.02
2022-09-12T01:44:45.336Z,25.20
2022-09-12T01:47:22.407Z,25.77
2022-09-12T01:50:08.115Z,24.25
2022-09-12T01:52:39.510Z,21.42
2022-09-12T01:55:20.912Z,27.25
2022-09-12T01:57:56.584Z,22.17
2022-09-12T02:00:23.152Z,22.35
2022-09-12T02:03:02.199Z,26.13
2022-09-12T02:05:34.990Z,23.08
2022-09-12T02:08:35.672Z,24.50
2022-09-12T02:11:10.380Z,24.90
2022-09-12T02:13:58.594Z,27.65
2022-09-12T02:18:57.871Z,22.92
2022-09-12T02:21:26.001Z,24.02
2022-09-12T02:23:57.984Z,26.80
2022-09-12T02:26:29.964Z,28.08
2022-09-12T02:28:56.727Z,25.65
2022-09-12T02:31:44.746Z,27.75
2022-09-12T02:34:20.043Z,26.92
2022-09-12T02:37:18.313Z,27.45
2022-09-12T02:39:45.628Z,27.45
2022-09-12T02:42:12.387Z,30.33
2022-09-12T02:44:38.876Z,29.15
2022-09-12T02:47:29.944Z,29.05
2022-09-12T02:49:56.890Z,27.58
2022-09-12T02:52:23.369Z,30.50
2022-09-12T02:54:50.363Z,28.15
2022-09-12T02:57:23.006Z,27.88
2022-09-12T02:59:50.610Z,23.85
2022-09-12T03:02:35.093Z,26.95
2022-09-12T03:05:10.590Z,27.70
2022-09-12T03:07:58.439Z,29.92
2022-09-12T03:10:30.932Z,31.20
2022-09-12T03:13:15.876Z,28.63
2022-09-12T03:16:03.545Z,30.70
2022-09-12T03:18:53.718Z,31.27
2022-09-12T03:21:26.266Z,26.92
2022-09-12T03:24:07.999Z,30.17
2022-09-12T03:26:44.847Z,32.95
2022-09-12T03:29:11.923Z,29.65
2022-09-12T03:31:51.477Z,30.92
2022-09-12T03:34:18.803Z,31.83
2022-09-12T03:36:45.296Z,33.30
2022-09-12T03:39:11.882Z,31.25
2022-09-12T03:41:38.227Z,29.05
2022-09-12T03:44:04.876Z,28.67
2022-09-12T03:46:31.229Z,27.05
2022-09-12T03:48:57.588Z,29.27
2022-09-12T03:51:23.954Z,28.33
2022-09-12T03:53:50.451Z,34.33
2022-09-12T03:56:17.828Z,30.02
2022-09-12T03:58:44.194Z,34.83
2022-09-12T04:01:13.240Z,29.05
2022-09-12T04:03:40.974Z,34.22
2022-09-12T04:06:08.009Z,32.67
2022-09-12T04:08:35.456Z,27.92
2022-09-12T04:11:10.597Z,32.28
2022-09-12T04:13:37.748Z,31.75
2022-09-12T04:16:04.655Z,32.63
2022-09-12T04:18:31.739Z,28.98
2022-09-12T04:20:58.374Z,28.40
2022-09-12T04:23:24.884Z,31.17
2022-09-12T04:25:55.558Z,35.08
2022-09-12T04:28:22.142Z,34.22
2022-09-12T04:30:48.533Z,35.00
2022-09-12T04:33:15.065Z,31.55
2022-09-12T04:35:42.791Z,33.40
2022-09-12T04:38:09.299Z,30.85
2022-09-12T04:40:35.637Z,30.35
2022-09-12T04:43:02.003Z,32.50
2022-09-12T04:45:28.364Z,31.98
2022-09-12T04:47:54.729Z,33.38
2022-09-12T04:50:21.089Z,32.45
2022-09-12T04:52:51.351Z,31.38
2022-09-12T04:55:18.155Z,31.20
2022-09-12T04:57:44.537Z,33.75
2022-09-12T05:00:15.012Z,31.65
2022-09-12T05:02:41.850Z,32.78
2022-09-12T05:05:09.092Z,33.92
2022-09-12T05:07:36.073Z,35.72
2022-09-12T05:10:04.039Z,33.17
2022-09-12T05:12:31.105Z,35.38
2022-09-12T05:14:57.703Z,34.90
2022-09-12T05:17:24.093Z,31.02
2022-09-12T05:19:50.808Z,34.85
2022-09-12T05:22:17.149Z,35.42
2022-09-12T05:24:53.999Z,35.90
2022-09-12T05:27:20.483Z,34.33
2022-09-12T05:29:46.835Z,33.45
2022-09-12T05:32:13.261Z,36.58
2022-09-12T05:34:40.359Z,33.53
2022-09-12T05:37:06.721Z,35.35
2022-09-12T05:39:33.060Z,37.47
2022-09-12T05:41:59.409Z,36.42
2022-09-12T05:44:25.791Z,38.95
2022-09-12T05:46:53.531Z,36.40
2022-09-12T05:49:21.317Z,36.85
2022-09-12T05:51:47.687Z,40.60
2022-09-12T05:54:17.254Z,37.80
2022-09-12T05:56:44.378Z,40.05
2022-09-12T05:59:12.255Z,41.13
2022-09-12T06:01:38.920Z,36.35
2022-09-12T06:04:06.659Z,44.00
2022-09-12T06:06:37.388Z,37.90
2022-09-12T06:09:04.753Z,43.65
2022-09-12T06:11:33.252Z,41.28
2022-09-12T06:14:00.391Z,45.38
2022-09-12T06:16:31.828Z,43.05
2022-09-12T06:19:00.605Z,42.25
2022-09-12T06:21:28.246Z,43.45
2022-09-12T06:23:55.217Z,46.17
2022-09-12T06:26:23.443Z,47.42
2022-09-12T06:28:50.305Z,46.22
2022-09-12T06:31:19.021Z,41.92
2022-09-12T06:33:48.409Z,50.17
2022-09-12T06:36:21.167Z,39.58
2022-09-12T06:38:48.634Z,49.92
2022-09-12T06:41:15.794Z,47.63
2022-09-12T06:43:42.843Z,51.88
2022-09-12T06:46:10.192Z,50.53
2022-09-12T06:48:41.609Z,51.88
2022-09-12T06:51:15.320Z,49.90
2022-09-12T06:53:42.988Z,51.97
2022-09-12T06:56:14.172Z,48.92
2022-09-12T06:58:41.693Z,48.55
2022-09-12T07:01:20.323Z,46.00
2022-09-12T07:03:52.263Z,48.83
2022-09-12T07:06:20.344Z,50.45
2022-09-12T07:08:47.309Z,46.67
2022-09-12T07:11:25.134Z,46.53
2022-09-12T07:13:53.460Z,45.10
2022-09-12T07:16:20.407Z,44.40
2022-09-12T07:18:51.471Z,41.20
2022-09-12T07:21:17.829Z,46.08
2022-09-12T07:23:45.384Z,45.90
2022-09-12T07:26:13.030Z,42.75
2022-09-12T07:28:40.073Z,43.00
2022-09-12T07:31:12.054Z,42.35
2022-09-12T07:33:39.317Z,41.80
2022-09-12T07:36:08.580Z,43.67
2022-09-12T07:38:35.199Z,38.25
2022-09-12T07:41:01.772Z,37.88
2022-09-12T07:43:28.262Z,37.53
2022-09-12T07:45:58.347Z,37.92
2022-09-12T07:48:25.027Z,41.40
2022-09-12T07:50:59.723Z,37.88
2022-09-12T07:53:36.891Z,38.00
2022-09-12T07:56:04.409Z,35.75
2022-09-12T07:58:31.844Z,33.47
2022-09-12T08:01:23.139Z,32.65
2022-09-12T08:03:53.181Z,28.77
2022-09-12T08:06:21.279Z,28.10
2022-09-12T08:08:48.714Z,29.15
2022-09-12T08:11:16.928Z,27.27
2022-09-12T08:13:44.297Z,25.52
2022-09-12T08:16:16.962Z,25.02
2022-09-12T08:18:43.484Z,25.70
2022-09-12T08:21:14.549Z,23.38
2022-09-12T08:23:41.426Z,23.75
2022-09-12T08:26:08.199Z,22.75
2022-09-12T08:28:35.727Z,21.85
2022-09-12T08:31:07.173Z,22.05
2022-09-12T08:33:34.364Z,20.40
2022-09-12T08:36:11.432Z,22.30
2022-09-12T08:38:39.552Z,19.30
2022-09-12T08:41:10.584Z,16.92
2022-09-12T08:43:52.059Z,16.42
2022-09-12T08:46:38.740Z,17.20
2022-09-12T08:49:09.447Z,17.42
2022-09-12T08:51:36.182Z,17.77
2022-09-12T08:54:04.738Z,17.17
2022-09-12T08:56:35.519Z,12.90
2022-09-12T08:59:02.720Z,15.18
2022-09-12T09:01:42.128Z,16.40
2022-09-12T09:04:33.465Z,13.57
2022-09-12T09:07:11.988Z,16.17
2022-09-12T09:10:15.573Z,11.77
2022-09-12T09:13:02.524Z,13.02
2022-09-12T09:15:48.546Z,13.55
2022-09-12T09:18:16.608Z,11.38
2022-09-12T09:20:43.889Z,10.05
2022-09-12T09:23:28.124Z,10.90
2022-09-12T09:26:07.129Z,12.00
2022-09-12T09:28:46.953Z,10.00
2022-09-12T09:31:18.074Z,11.23
2022-09-12T09:33:46.764Z,10.20
2022-09-12T09:36:34.973Z,9.85
2022-09-12T09:39:06.574Z,10.45
2022-09-12T09:41:45.077Z,10.80
2022-09-12T09:44:11.615Z,9.65
2022-09-12T09:46:38.128Z,11.82
2022-09-12T09:49:06.887Z,10.05
2022-09-12T09:51:35.794Z,11.43
2022-09-12T09:54:20.245Z,11.07
2022-09-12T09:56:46.870Z,15.70
2022-09-12T09:59:20.260Z,13.65
2022-09-12T10:01:57.952Z,11.65
2022-09-12T10:04:27.941Z,13.25
2022-09-12T10:06:58.002Z,15.50
2022-09-12T10:09:29.262Z,15.45
2022-09-12T10:11:56.821Z,15.23
2022-09-12T10:14:30.921Z,18.20
2022-09-12T10:16:58.471Z,18.05
2022-09-12T10:19:35.416Z,16.98
2022-09-12T10:22:03.664Z,15.25
2022-09-12T10:24:29.891Z,17.23
2022-09-12T10:27:17.083Z,18.70
2022-09-12T10:29:56.653Z,17.48
2022-09-12T10:32:38.033Z,14.85
2022-09-12T10:35:08.964Z,13.88
2022-09-12T10:37:37.520Z,16.92
2022-09-12T10:40:06.468Z,15.18
2022-09-12T10:42:48.036Z,11.98
2022-09-12T10:45:20.367Z,15.77
2022-09-12T10:47:47.210Z,12.90
2022-09-12T10:50:23.692Z,13.40
2022-09-12T10:52:50.145Z,10.30
2022-09-12T10:55:16.814Z,13.20
2022-09-12T10:57:54.991Z,9.32
2022-09-12T11:00:27.625Z,8.93
2022-09-12T11:02:57.078Z,10.45
2022-09-12T11:08:14.829Z,10.32
2022-09-12T11:10:57.795Z,6.25
2022-09-12T11:13:45.671Z,6.25
2022-09-12T11:19:06.087Z,7.88
2022-09-12T11:22:01.727Z,6.72
2022-09-12T11:24:48.116Z,6.72
2022-09-12T11:27:21.365Z,6.72
2022-09-12T11:30:02.900Z,7.70
2022-09-12T11:32:56.964Z,6.45
2022-09-12T11:38:07.218Z,6.28
2022-09-12T11:40:55.798Z,7.88
2022-09-12T11:43:25.354Z,6.90
2022-09-12T11:45:52.911Z,6.25
2022-09-12T11:48:56.636Z,5.50
2022-09-12T11:51:40.125Z,7.22
2022-09-12T11:54:12.952Z,5.57
2022-09-12T11:56:45.079Z,5.90
2022-09-12T11:59:32.125Z,5.80
2022-09-12T12:02:02.545Z,5.82
2022-09-12T12:04:37.130Z,6.43
2022-09-12T12:07:07.247Z,7.13
2022-09-12T12:09:34.431Z,6.93
2022-09-12T12:12:06.525Z,6.40
2022-09-12T12:14:47.725Z,6.38
2022-09-12T12:17:19.432Z,5.50
2022-09-12T12:19:46.554Z,6.03
2022-09-12T12:22:18.542Z,5.22
2022-09-12T12:25:17.205Z,6.50
2022-09-12T12:28:01.321Z,8.70
2022-09-12T12:30:30.628Z,6.05
2022-09-12T12:35:43.255Z,6.40
2022-09-12T12:38:33.223Z,6.07
2022-09-12T12:41:17.851Z,6.30
2022-09-12T12:43:48.897Z,5.28
2022-09-12T12:46:19.574Z,5.55
2022-09-12T12:48:58.134Z,5.15
2022-09-12T12:51:36.877Z,4.35
2022-09-12T12:54:08.695Z,4.82
2022-09-12T12:56:42.095Z,5.13
2022-09-12T12:59:18.022Z,6.22
2022-09-12T13:01:56.082Z,4.25
2022-09-12T13:04:25.301Z,5.20
2022-09-12T13:07:08.152Z,7.10
2022-09-12T13:09:44.789Z,5.60
2022-09-12T13:12:18.455Z,4.93
2022-09-12T13:14:47.719Z,11.15
2022-09-12T13:19:49.783Z,5.50
2022-09-12T13:22:16.185Z,6.53
2022-09-12T13:24:44.653Z,5.85
2022-09-12T13:27:18.002Z,7.70
2022-09-12T13:29:44.413Z,4.65
2022-09-12T13:32:11.066Z,6.63
2022-09-12T13:37:50.874Z,3.72
2022-09-12T13:40:20.830Z,4.65
2022-09-12T13:42:53.720Z,5.00
2022-09-12T13:45:25.016Z,4.82
2022-09-12T13:48:01.869Z,5.18
2022-09-12T13:50:31.900Z,4.82
2022-09-12T13:53:00.549Z,5.38
2022-09-12T13:55:32.092Z,5.63
2022-09-12T13:58:04.045Z,4.05
2022-09-12T14:00:32.241Z,4.05
2022-09-12T14:03:37.409Z,4.00
2022-09-12T14:06:06.180Z,4.57
2022-09-12T14:08:33.361Z,4.22
2022-09-12T14:10:59.993Z,4.22
2022-09-12T14:13:26.795Z,4.32
2022-09-12T14:15:54.836Z,4.60
2022-09-12T14:18:30.044Z,4.47
2022-09-12T14:23:32.108Z,3.78
2022-09-12T14:26:01.993Z,4.32
2022-09-12T14:28:30.161Z,3.58
2022-09-12T14:31:10.365Z,3.97
2022-09-12T14:33:54.068Z,4.00
2022-09-12T14:36:26.469Z,3.70
2022-09-12T14:38:56.080Z,5.18
2022-09-12T14:41:28.576Z,4.55
2022-09-12T14:44:01.207Z,3.95
2022-09-12T14:46:33.753Z,3.47
2022-09-12T14:49:06.488Z,4.45
2022-09-12T14:51:35.413Z,3.53
2022-09-12T14:54:02.641Z,4.75
2022-09-12T14:56:41.196Z,5.35
2022-09-12T14:59:40.698Z,3.45
2022-09-12T15:02:22.419Z,4.30
2022-09-12T15:04:53.048Z,3.63
2022-09-12T15:07:37.108Z,4.20
2022-09-12T15:10:33.848Z,3.88
2022-09-12T15:13:09.299Z,4.78
2022-09-12T15:15:40.288Z,3.92
2022-09-12T15:18:07.206Z,5.05
2022-09-12T15:20:36.538Z,3.92
2022-09-12T15:23:03.024Z,3.90
2022-09-12T15:25:29.513Z,5.00
2022-09-12T15:27:56.367Z,4.38
2022-09-12T15:30:22.751Z,4.70
2022-09-12T15:32:49.281Z,3.97
2022-09-12T15:35:23.279Z,4.47
2022-09-12T15:37:49.890Z,4.30
2022-09-12T15:40:16.881Z,6.45
2022-09-12T15:42:43.633Z,4.63
2022-09-12T15:45:22.776Z,4.57
2022-09-12T15:47:49.244Z,3.72
2022-09-12T15:50:15.673Z,3.83
2022-09-12T15:52:42.637Z,3.50
2022-09-12T15:55:16.721Z,3.65
2022-09-12T15:57:43.314Z,4.32
2022-09-12T16:00:10.568Z,3.63
2022-09-12T16:02:36.967Z,3.20
2022-09-12T16:05:04.684Z,4.88
2022-09-12T16:07:31.038Z,3.72
2022-09-12T16:09:57.439Z,3.50
2022-09-12T16:12:23.781Z,3.95
2022-09-12T16:14:50.131Z,3.72
2022-09-12T16:17:16.796Z,3.90
2022-09-12T16:19:43.244Z,3.55
2022-09-12T16:22:09.592Z,3.72
2022-09-12T16:24:36.081Z,4.22
2022-09-12T16:27:02.435Z,5.05
2022-09-12T16:29:28.896Z,5.00
2022-09-12T16:31:55.241Z,3.58
2022-09-12T16:34:21.599Z,3.45
2022-09-12T16:36:47.980Z,3.70
2022-09-12T16:39:14.584Z,3.38
2022-09-12T16:41:42.577Z,3.97
2022-09-12T16:44:10.089Z,3.70
2022-09-12T16:46:36.485Z,4.13
2022-09-12T16:49:03.511Z,4.53
2022-09-12T16:51:35.827Z,3.65
2022-09-12T16:54:02.192Z,3.88
2022-09-12T16:56:28.896Z,4.45
2022-09-12T16:58:55.501Z,6.68
2022-09-12T17:01:23.649Z,4.85
2022-09-12T17:03:54.692Z,4.40
2022-09-12T17:06:21.816Z,4.75
2022-09-12T17:08:52.079Z,5.15
2022-09-12T17:11:30.906Z,4.45
2022-09-12T17:14:06.743Z,4.57
2022-09-12T17:16:35.893Z,4.10
2022-09-12T17:19:02.712Z,4.07
2022-09-12T17:21:29.173Z,4.07
2022-09-12T17:23:55.861Z,4.70
2022-09-12T17:26:22.356Z,4.85
2022-09-12T17:28:48.762Z,3.95
2022-09-12T17:31:15.428Z,4.15
2022-09-12T17:33:42.332Z,4.10
2022-09-12T17:36:15.093Z,3.60
2022-09-12T17:38:42.832Z,6.90
2022-09-12T17:41:14.943Z,4.95
2022-09-12T17:43:41.969Z,6.40
2022-09-12T17:46:08.548Z,5.60
2022-09-12T17:48:35.501Z,4.50
2022-09-12T17:51:14.049Z,6.22
2022-09-12T17:53:41.440Z,3.80
2022-09-12T17:56:08.259Z,3.97
2022-09-12T17:58:35.204Z,6.35
2022-09-12T18:01:25.737Z,5.60
2022-09-12T18:03:56.627Z,4.05
2022-09-12T18:06:23.771Z,5.03
2022-09-12T18:08:50.592Z,5.22
2022-09-12T18:11:17.254Z,4.85
2022-09-12T18:13:43.721Z,5.63
2022-09-12T18:16:12.065Z,6.78
2022-09-12T18:18:38.582Z,5.97
2022-09-12T18:21:07.044Z,4.75
2022-09-12T18:23:33.662Z,6.03
2022-09-12T18:26:05.886Z,5.38
2022-09-12T18:28:37.095Z,5.00
2022-09-12T18:31:04.343Z,4.82
2022-09-12T18:33:30.927Z,5.65
2022-09-12T18:35:57.308Z,6.38
2022-09-12T18:38:23.719Z,6.20
2022-09-12T18:40:50.190Z,7.03
2022-09-12T18:43:16.540Z,5.55
2022-09-12T18:45:42.880Z,5.60
2022-09-12T18:48:09.315Z,6.00
2022-09-12T18:50:35.686Z,5.55
2022-09-12T18:53:02.056Z,6.03
2022-09-12T18:55:30.198Z,5.88
2022-09-12T18:57:56.604Z,5.60
2022-09-12T19:00:22.973Z,4.68
2022-09-12T19:02:49.387Z,5.10
2022-09-12T19:05:15.874Z,6.53
2022-09-12T19:07:42.276Z,8.90
2022-09-12T19:10:08.976Z,6.07
2022-09-12T19:12:35.457Z,6.60
2022-09-12T19:15:01.985Z,5.65
2022-09-12T19:17:28.404Z,6.57
2022-09-12T19:19:55.389Z,7.03
2022-09-12T19:22:22.135Z,6.57
2022-09-12T19:24:48.483Z,7.65
2022-09-12T19:27:15.990Z,6.28
2022-09-12T19:29:42.424Z,6.90
2022-09-12T19:32:08.803Z,7.30
2022-09-12T19:34:35.325Z,6.05
2022-09-12T19:37:01.670Z,4.65
2022-09-12T19:39:28.051Z,6.00
2022-09-12T19:41:54.416Z,5.10
2022-09-12T19:44:20.900Z,6.68
2022-09-12T19:46:47.654Z,6.25
2022-09-12T19:49:14.047Z,6.40
2022-09-12T19:51:40.450Z,6.22
2022-09-12T19:54:07.627Z,5.72
2022-09-12T19:56:34.020Z,6.75
2022-09-12T19:59:00.364Z,5.60
2022-09-12T20:01:28.344Z,5.55
2022-09-12T20:03:55.496Z,5.20
2022-09-12T20:06:22.395Z,6.60
2022-09-12T20:08:48.985Z,4.82
2022-09-12T20:11:17.805Z,6.35
2022-09-12T20:13:45.196Z,5.45
2022-09-12T20:16:21.772Z,6.32
2022-09-12T20:18:53.055Z,5.70
2022-09-12T20:21:21.786Z,7.15
2022-09-12T20:23:48.129Z,5.63
2022-09-12T20:26:14.780Z,5.82
2022-09-12T20:28:41.563Z,6.43
2022-09-12T20:31:15.991Z,7.07
2022-09-12T20:33:43.260Z,5.55
2022-09-12T20:36:14.708Z,5.80
2022-09-12T20:38:42.531Z,6.65
2022-09-12T20:41:10.650Z,5.55
2022-09-12T20:43:38.546Z,6.15
2022-09-12T20:46:06.262Z,5.68
2022-09-12T20:48:32.744Z,5.28
2022-09-12T20:50:59.650Z,6.18
2022-09-12T20:53:26.098Z,6.88
2022-09-12T20:55:52.812Z,5.57
2022-09-12T20:58:20.239Z,5.68
2022-09-12T21:00:47.157Z,6.72
2022-09-12T21:03:14.723Z,6.30
2022-09-12T21:05:46.188Z,6.43
2022-09-12T21:08:13.304Z,6.30
2022-09-12T21:10:44.078Z,6.07
2022-09-12T21:13:11.301Z,6.68
2022-09-12T21:15:38.508Z,5.90
2022-09-12T21:18:05.160Z,7.55
2022-09-12T21:20:32.132Z,6.50
2022-09-12T21:22:58.615Z,7.35
2022-09-12T21:25:25.048Z,6.03
2022-09-12T21:27:51.403Z,5.20
2022-09-12T21:30:17.912Z,6.90
2022-09-12T21:32:44.840Z,6.32
2022-09-12T21:35:11.216Z,6.28
2022-09-12T21:37:37.583Z,6.28
2022-09-12T21:40:04.280Z,5.13
2022-09-12T21:42:31.624Z,6.50
2022-09-12T21:44:57.970Z,7.47
2022-09-12T21:47:24.586Z,6.40
2022-09-12T21:49:50.988Z,7.03
2022-09-12T21:52:20.309Z,5.60
2022-09-12T21:54:46.700Z,5.72
2022-09-12T21:57:13.077Z,6.45
2022-09-12T21:59:39.465Z,5.38
2022-09-12T22:02:08.455Z,8.65
2022-09-12T22:04:34.869Z,6.97
2022-09-12T22:07:01.608Z,6.18
2022-09-12T22:09:27.977Z,5.53
2022-09-12T22:11:54.320Z,10.18
2022-09-12T22:14:20.779Z,7.80
2022-09-12T22:16:47.128Z,6.88
2022-09-12T22:19:14.989Z,7.85
2022-09-12T22:22:01.314Z,7.88
2022-09-12T22:24:27.724Z,8.23
2022-09-12T22:26:54.924Z,7.28
2022-09-12T22:29:21.732Z,8.18
2022-09-12T22:31:48.146Z,7.07
2022-09-12T22:34:15.032Z,9.63
2022-09-12T22:36:41.672Z,8.05
2022-09-12T22:39:08.557Z,7.47
2022-09-12T22:41:34.912Z,6.82
2022-09-12T22:44:01.510Z,7.75
2022-09-12T22:46:29.924Z,9.00
2022-09-12T22:48:56.376Z,9.20
2022-09-12T22:51:22.721Z,8.77
2022-09-12T22:53:49.248Z,6.85
2022-09-12T22:56:15.700Z,6.75
2022-09-12T22:58:43.455Z,7.53
2022-09-12T23:01:10.354Z,6.18
2022-09-12T23:03:37.076Z,6.78
2022-09-12T23:06:04.355Z,7.95
2022-09-12T23:08:30.735Z,6.32
2022-09-12T23:11:10.689Z,7.18
2022-09-12T23:13:38.085Z,7.30
2022-09-12T23:16:07.030Z,7.20
2022-09-12T23:18:35.861Z,7.82
2022-09-12T23:21:12.717Z,7.18
2022-09-12T23:23:39.204Z,7.55
2022-09-12T23:26:20.280Z,7.75
2022-09-12T23:28:52.697Z,6.00
2022-09-12T23:31:20.028Z,8.68
2022-09-12T23:33:46.892Z,7.60
2022-09-12T23:36:16.708Z,7.75
2022-09-12T23:38:45.490Z,7.07
2022-09-12T23:41:13.538Z,8.88
2022-09-12T23:43:40.063Z,8.05
2022-09-12T23:46:07.136Z,8.60
2022-09-12T23:48:34.016Z,8.48
2022-09-12T23:51:00.472Z,6.50
2022-09-12T23:53:27.213Z,7.85
2022-09-12T23:55:53.861Z,7.47
2022-09-12T23:58:22.222Z,7.43
